Time;durP1;ratioP1;P1;durP2;ratioP2;P2;SDS_P1;SDS_P2;PMS_P1;PMS_P2;Temp;Humidity;BMP_temperature;BMP_pressure;BME280_temperature;BME280_humidity;BME280_pressure;Samples;Min_cycle;Max_cycle;Signal;HPM_P1;HPM_P2
2022/02/14 00:00:50;;;;;;;7.35;2.20;;;;;;;-3.02;54.69;99841.66;4957331;28;20058;-60
2022/02/14 00:03:16;;;;;;;11.90;1.92;;;;;;;-2.98;54.34;99845.06;4971412;28;20498;-61
2022/02/14 00:05:42;;;;;;;6.97;1.85;;;;;;;-2.98;54.34;99837.13;4955950;28;20046;-61
2022/02/14 00:08:08;;;;;;;7.90;2.05;;;;;;;-3.00;54.43;99833.66;4924075;28;20042;-62
2022/02/14 00:10:34;;;;;;;7.53;2.13;;;;;;;-3.04;55.41;99837.34;4971904;28;20051;-62
2022/02/14 00:13:01;;;;;;;6.90;1.85;;;;;;;-3.02;55.51;99854.03;4956077;28;20137;-62
2022/02/14 00:15:26;;;;;;;10.32;3.17;;;;;;;-3.02;55.32;99857.53;4939967;28;20403;-62
2022/02/14 00:17:52;;;;;;;11.32;3.55;;;;;;;-2.99;55.12;99846.84;4940186;28;20125;-63
2022/02/14 00:20:18;;;;;;;11.50;3.30;;;;;;;-3.04;55.74;99832.91;4940042;28;20074;-61
2022/02/14 00:22:44;;;;;;;7.60;2.00;;;;;;;-3.01;54.83;99838.09;4956038;28;20149;-61
2022/02/14 00:25:11;;;;;;;8.18;2.10;;;;;;;-2.99;54.76;99835.41;4939675;28;20123;-61
2022/02/14 00:27:37;;;;;;;10.13;2.78;;;;;;;-3.03;54.97;99824.09;4956043;28;20067;-61
2022/02/14 00:30:04;;;;;;;11.80;1.90;;;;;;;-3.04;55.62;99825.00;4940226;28;20426;-62
2022/02/14 00:32:30;;;;;;;9.40;2.00;;;;;;;-3.18;55.38;99807.06;4956346;28;20047;-62
2022/02/14 00:34:56;;;;;;;7.22;2.03;;;;;;;-3.08;55.65;99820.75;4956093;28;20537;-66
2022/02/14 00:37:22;;;;;;;8.35;2.30;;;;;;;-3.12;55.80;99819.16;4939717;28;20043;-63
2022/02/14 00:39:48;;;;;;;8.32;2.03;;;;;;;-3.08;55.89;99810.16;4939475;28;20070;-62
2022/02/14 00:42:15;;;;;;;12.27;2.42;;;;;;;-3.10;55.59;99805.88;4924020;28;20047;-62
2022/02/14 00:44:41;;;;;;;7.10;1.90;;;;;;;-3.13;56.56;99813.94;4955620;28;20081;-60
2022/02/14 00:47:07;;;;;;;7.80;1.80;;;;;;;-3.31;56.93;99813.75;4939552;28;20043;-63
2022/02/14 00:49:33;;;;;;;8.52;2.20;;;;;;;-3.20;57.30;99822.09;4923676;28;20046;-62
2022/02/14 00:51:59;;;;;;;8.98;2.30;;;;;;;-3.24;56.91;99814.38;4939109;28;20050;-63
2022/02/14 00:54:25;;;;;;;9.75;2.28;;;;;;;-3.24;57.08;99812.56;4939422;28;20046;-62
2022/02/14 00:56:51;;;;;;;7.43;1.98;;;;;;;-3.27;57.27;99815.34;4955230;28;20495;-61
2022/02/14 00:59:17;;;;;;;9.35;2.50;;;;;;;-3.23;57.07;99816.06;4971379;28;20062;-62
2022/02/14 01:01:43;;;;;;;9.02;2.03;;;;;;;-3.25;57.41;99816.16;4955535;28;20413;-62
2022/02/14 01:04:09;;;;;;;9.82;2.70;;;;;;;-3.45;57.44;99789.63;4954973;28;20121;-61
2022/02/14 01:06:35;;;;;;;8.57;2.25;;;;;;;-3.31;57.60;99807.59;4939329;28;20558;-63
2022/02/14 01:09:02;;;;;;;8.98;2.10;;;;;;;-3.35;58.18;99806.84;4939093;28;20043;-61
2022/02/14 01:11:28;;;;;;;11.15;2.83;;;;;;;-3.40;58.32;99793.81;4923530;28;20042;-63
2022/02/14 01:13:54;;;;;;;10.65;2.33;;;;;;;-3.32;58.32;99800.59;4938536;28;20053;-63
2022/02/14 01:16:20;;;;;;;8.75;2.33;;;;;;;-3.56;58.43;99755.69;4955205;28;20495;-63
2022/02/14 01:18:46;;;;;;;9.40;2.17;;;;;;;-3.40;58.81;99785.00;4939026;28;20070;-63
2022/02/14 01:21:12;;;;;;;8.88;2.00;;;;;;;-3.40;59.01;99777.09;4938623;28;20058;-62
2022/02/14 01:23:37;;;;;;;6.82;1.70;;;;;;;-3.40;58.68;99777.09;4938790;28;20047;-63
2022/02/14 01:26:03;;;;;;;8.68;2.53;;;;;;;-3.40;58.76;99777.09;4954927;28;20050;-61
2022/02/14 01:28:29;;;;;;;7.50;1.90;;;;;;;-3.41;58.88;99780.66;4971065;28;20136;-61
2022/02/14 01:30:55;;;;;;;8.63;1.98;;;;;;;-3.48;59.59;99771.25;4954674;28;20047;-61
2022/02/14 01:33:21;;;;;;;7.88;1.98;;;;;;;-3.40;59.51;99779.72;4954776;28;20472;-63
2022/02/14 01:35:47;;;;;;;6.80;1.98;;;;;;;-3.42;59.43;99777.16;4938796;28;20047;-62
2022/02/14 01:38:13;;;;;;;8.85;2.03;;;;;;;-3.41;59.64;99770.94;4939225;28;20061;-60
2022/02/14 01:40:39;;;;;;;8.63;2.25;;;;;;;-3.41;59.56;99764.78;4955099;28;20117;-61
2022/02/14 01:43:05;;;;;;;7.72;1.90;;;;;;;-3.44;59.79;99764.91;4938826;28;20454;-61
2022/02/14 01:45:31;;;;;;;7.95;2.10;;;;;;;-3.40;60.10;99777.09;4938382;28;20066;-63
2022/02/14 01:47:57;;;;;;;9.38;2.08;;;;;;;-3.41;60.44;99765.66;4954176;28;20074;-62
2022/02/14 01:50:22;;;;;;;8.95;2.13;;;;;;;-3.39;60.32;99768.25;4954574;28;20106;-63
2022/02/14 01:52:48;;;;;;;8.60;2.47;;;;;;;-3.43;60.25;99764.00;4955191;28;20054;-63
2022/02/14 01:55:15;;;;;;;8.55;2.17;;;;;;;-3.40;60.44;99766.50;4955702;28;20082;-61
2022/02/14 01:57:42;;;;;;;7.65;2.10;;;;;;;-3.55;60.09;99735.41;4954377;28;20058;-62
2022/02/14 02:00:13;;;;;;;7.68;1.90;;;;;;;-3.55;60.26;99740.69;4970601;28;20129;-64
2022/02/14 02:02:40;;;;;;;7.90;2.00;;;;;;;-3.40;61.00;99775.31;4969977;28;20124;-61
2022/02/14 02:05:06;;;;;;;7.07;1.92;;;;;;;-3.41;60.66;99759.50;4922429;28;20078;-61
2022/02/14 02:07:35;;;;;;;13.30;2.50;;;;;;;-3.42;61.25;99744.59;4970133;28;20053;-61
2022/02/14 02:10:01;;;;;;;8.18;2.05;;;;;;;-3.46;60.46;99735.06;4938255;28;20102;-62
2022/02/14 02:12:28;;;;;;;9.95;2.38;;;;;;;-3.45;60.87;99737.63;4970163;28;20145;-61
2022/02/14 02:14:59;;;;;;;7.95;2.20;;;;;;;-3.45;61.14;99720.91;4938359;28;20047;-62
2022/02/14 02:17:33;;;;;;;7.72;2.00;;;;;;;-3.45;61.05;99732.34;4971505;28;20058;-60
2022/02/14 02:20:00;;;;;;;7.30;2.20;;;;;;;-3.49;61.57;99748.41;4922379;28;20043;-62
2022/02/14 02:22:25;;;;;;;10.25;2.47;;;;;;;-3.49;61.81;99729.91;4970290;28;20070;-60
2022/02/14 02:24:54;;;;;;;8.63;2.00;;;;;;;-3.55;61.94;99741.56;4953862;28;20085;-61
2022/02/14 02:27:25;;;;;;;7.47;1.90;;;;;;;-3.54;61.88;99738.00;4957430;28;20038;-61
2022/02/14 02:29:55;;;;;;;12.60;2.50;;;;;;;-3.54;62.06;99737.16;4958836;28;20050;-62
2022/02/14 02:32:21;;;;;;;8.43;2.25;;;;;;;-3.53;62.36;99744.16;4973915;28;20123;-61
2022/02/14 02:34:47;;;;;;;8.20;2.08;;;;;;;-3.55;62.48;99730.13;4941312;28;20500;-61
2022/02/14 02:37:15;;;;;;;10.55;2.28;;;;;;;-3.54;62.22;99737.16;4941763;28;20066;-64
2022/02/14 02:39:41;;;;;;;7.47;1.85;;;;;;;-3.53;62.37;99733.59;4941831;28;20133;-64
2022/02/14 02:42:09;;;;;;;10.35;2.50;;;;;;;-3.59;62.94;99712.69;4926242;28;20054;-60
2022/02/14 02:44:36;;;;;;;7.10;2.10;;;;;;;-3.65;62.91;99706.72;4957769;28;20058;-62
2022/02/14 02:47:04;;;;;;;8.45;2.22;;;;;;;-3.73;62.92;99690.34;4973573;28;20507;-62
2022/02/14 02:49:30;;;;;;;9.30;2.50;;;;;;;-3.62;63.26;99724.22;4957344;28;20142;-61
2022/02/14 02:51:56;;;;;;;7.38;2.00;;;;;;;-3.65;63.12;99704.09;4925621;28;20050;-62
2022/02/14 02:54:23;;;;;;;9.65;2.40;;;;;;;-3.61;63.38;99709.25;4926034;28;20057;-63
2022/02/14 02:56:50;;;;;;;8.15;2.40;;;;;;;-3.55;62.79;99709.84;4941327;28;20506;-64
2022/02/14 02:59:17;;;;;;;8.10;2.38;;;;;;;-3.60;62.94;99710.97;4957712;28;20058;-62
2022/02/14 03:01:43;;;;;;;6.63;1.75;;;;;;;-3.54;63.00;99726.59;4957209;28;20045;-61
2022/02/14 03:04:10;;;;;;;10.18;2.35;;;;;;;-3.55;63.03;99714.28;4957726;28;20054;-63
2022/02/14 03:06:37;;;;;;;9.95;2.10;;;;;;;-3.55;63.14;99714.28;4973665;28;20058;-62
2022/02/14 03:09:04;;;;;;;9.88;2.17;;;;;;;-3.56;63.76;99717.84;4941944;28;20054;-62
2022/02/14 03:11:31;;;;;;;9.45;2.42;;;;;;;-3.57;63.36;99710.84;4942373;28;20077;-60
2022/02/14 03:13:57;;;;;;;8.25;2.10;;;;;;;-3.73;63.79;99692.97;4957964;28;20178;-61
2022/02/14 03:16:23;;;;;;;10.13;2.40;;;;;;;-3.92;64.33;99662.91;4975283;28;20039;-62
2022/02/14 03:18:49;;;;;;;10.88;2.55;;;;;;;-3.65;63.26;99698.81;4957996;28;20371;-61
2022/02/14 03:21:15;;;;;;;9.70;2.30;;;;;;;-3.65;63.87;99704.09;4975141;28;20213;-62
2022/02/14 03:23:41;;;;;;;9.25;2.67;;;;;;;-3.66;64.02;99694.47;4957930;28;20039;-63
2022/02/14 03:26:07;;;;;;;10.32;2.20;;;;;;;-3.71;64.32;99683.19;4957909;28;20043;-62
2022/02/14 03:28:34;;;;;;;11.13;2.53;;;;;;;-3.70;64.76;99687.53;4941515;28;20529;-62
2022/02/14 03:31:00;;;;;;;6.97;2.13;;;;;;;-3.70;64.44;99687.53;4957566;28;20051;-62
2022/02/14 03:33:27;;;;;;;7.68;1.83;;;;;;;-3.70;64.66;99682.25;4956699;28;20046;-61
2022/02/14 03:35:53;;;;;;;8.93;2.60;;;;;;;-3.76;65.32;99679.03;4989264;28;20046;-63
2022/02/14 03:38:19;;;;;;;9.60;2.10;;;;;;;-3.77;65.61;99683.44;4956559;28;20090;-64
2022/02/14 03:40:46;;;;;;;10.15;2.40;;;;;;;-3.78;65.35;99678.22;4940452;28;20086;-60
2022/02/14 03:43:12;;;;;;;9.13;2.10;;;;;;;-3.79;65.45;99669.44;4973809;28;20038;-61
2022/02/14 03:45:40;;;;;;;9.60;2.17;;;;;;;-3.79;65.34;99677.38;4975527;28;20058;-63
2022/02/14 03:48:07;;;;;;;7.88;2.10;;;;;;;-3.82;65.55;99668.69;4975902;28;20061;-60
2022/02/14 03:50:33;;;;;;;9.95;1.90;;;;;;;-3.82;65.62;99673.97;5024555;28;20054;-64
2022/02/14 03:53:00;;;;;;;11.07;2.30;;;;;;;-3.88;65.57;99675.06;4975593;28;20505;-63
2022/02/14 03:55:26;;;;;;;8.93;2.20;;;;;;;-3.98;65.55;99671.09;5008201;28;20111;-61
2022/02/14 03:57:52;;;;;;;8.18;2.03;;;;;;;-3.82;65.39;99690.69;4959162;28;20577;-62
2022/02/14 04:00:20;;;;;;;7.53;1.70;;;;;;;-3.86;65.87;99689.09;4959222;28;20465;-63
2022/02/14 04:02:46;;;;;;;12.05;2.40;;;;;;;-3.89;66.28;99678.63;4990219;28;20157;-63
2022/02/14 04:05:14;;;;;;;9.13;2.47;;;;;;;-3.85;66.60;99690.81;4936641;29;20048;-62
2022/02/14 04:07:40;;;;;;;8.63;2.22;;;;;;;-3.84;66.13;99689.00;4937223;29;20054;-63
2022/02/14 04:10:08;;;;;;;10.57;2.60;;;;;;;-3.85;66.35;99682.88;4921603;29;20043;-63
2022/02/14 04:12:34;;;;;;;8.40;2.70;;;;;;;-3.90;66.50;99692.78;4968905;28;20163;-63
2022/02/14 04:15:01;;;;;;;10.05;2.47;;;;;;;-3.86;66.75;99702.28;4937028;29;20051;-64
2022/02/14 04:17:27;;;;;;;7.60;2.00;;;;;;;-3.89;66.88;99697.13;4953364;29;20051;-63
2022/02/14 04:19:53;;;;;;;9.13;2.38;;;;;;;-3.91;66.98;99688.41;4953027;28;20055;-63
2022/02/14 04:22:19;;;;;;;8.88;2.25;;;;;;;-3.91;67.40;99698.97;4952665;29;20047;-61
2022/02/14 04:24:46;;;;;;;7.13;1.92;;;;;;;-3.91;66.71;99701.63;4936633;29;20067;-61
2022/02/14 04:27:12;;;;;;;8.40;2.00;;;;;;;-3.94;67.48;99694.66;4968752;28;20039;-61
2022/02/14 04:29:38;;;;;;;7.90;2.50;;;;;;;-3.95;67.32;99700.00;4968301;28;20772;-63
2022/02/14 04:32:04;;;;;;;9.23;2.05;;;;;;;-3.94;67.17;99707.00;4936607;29;20051;-62
2022/02/14 04:34:30;;;;;;;11.00;2.33;;;;;;;-3.97;67.15;99686.00;4936364;29;20142;-60
2022/02/14 04:36:57;;;;;;;8.13;2.33;;;;;;;-4.00;67.73;99680.84;4952490;29;20122;-62
2022/02/14 04:39:23;;;;;;;9.93;2.17;;;;;;;-4.01;68.19;99679.13;4952307;29;20066;-62
2022/02/14 04:41:49;;;;;;;10.95;2.40;;;;;;;-4.06;67.96;99684.56;4952088;29;20039;-63
2022/02/14 04:44:15;;;;;;;9.63;2.30;;;;;;;-4.04;68.70;99681.88;4936537;29;20043;-63
2022/02/14 04:46:41;;;;;;;9.77;2.42;;;;;;;-4.08;68.63;99673.22;4952463;29;20074;-62
2022/02/14 04:49:07;;;;;;;7.50;2.53;;;;;;;-4.42;67.96;99615.59;4919643;29;20047;-63
2022/02/14 04:51:34;;;;;;;8.20;1.98;;;;;;;-4.03;68.17;99670.38;4952743;29;20106;-61
2022/02/14 04:54:04;;;;;;;11.25;2.50;;;;;;;-4.02;68.79;99672.09;4953022;28;20055;-65
2022/02/14 04:56:30;;;;;;;9.00;2.70;;;;;;;-4.03;68.78;99670.38;4952453;29;20147;-63
2022/02/14 04:58:57;;;;;;;8.20;2.88;;;;;;;-4.05;69.03;99666.97;4937128;29;20080;-64
2022/02/14 05:01:23;;;;;;;7.18;2.22;;;;;;;-4.03;68.82;99670.38;4985011;28;20047;-65
2022/02/14 05:03:50;;;;;;;8.10;2.30;;;;;;;-4.03;69.02;99671.25;4951765;29;20074;-62
2022/02/14 05:06:16;;;;;;;8.63;1.90;;;;;;;-4.02;69.24;99662.44;4983705;28;20054;-60
2022/02/14 05:08:42;;;;;;;9.30;2.15;;;;;;;-4.09;69.07;99652.16;4952180;29;20050;-61
2022/02/14 05:11:08;;;;;;;8.35;2.00;;;;;;;-4.03;69.01;99673.03;4952019;29;20055;-61
2022/02/14 05:13:35;;;;;;;8.82;2.88;;;;;;;-4.08;69.23;99653.88;4951671;29;20115;-62
2022/02/14 05:16:00;;;;;;;8.48;2.50;;;;;;;-4.05;69.63;99670.47;4904125;29;20139;-62
2022/02/14 05:18:26;;;;;;;8.55;2.20;;;;;;;-4.05;69.38;99666.97;4984017;28;20435;-63
2022/02/14 05:20:52;;;;;;;7.20;2.15;;;;;;;-4.05;69.76;99672.25;4951755;29;20051;-61
2022/02/14 05:23:18;;;;;;;9.73;2.45;;;;;;;-4.07;69.47;99668.78;4967632;28;20126;-62
2022/02/14 05:25:44;;;;;;;9.88;2.35;;;;;;;-4.05;69.77;99661.69;4919405;29;20357;-62
2022/02/14 05:28:10;;;;;;;8.95;2.50;;;;;;;-4.05;69.52;99666.97;4951504;29;20047;-61
2022/02/14 05:30:37;;;;;;;7.38;2.08;;;;;;;-4.03;70.18;99665.97;4951406;29;20051;-60
2022/02/14 05:33:04;;;;;;;8.25;2.30;;;;;;;-4.01;69.81;99663.28;4984307;28;20050;-61
2022/02/14 05:35:30;;;;;;;7.28;2.30;;;;;;;-3.94;70.21;99670.06;4936197;29;20066;-62
2022/02/14 05:37:56;;;;;;;8.23;2.42;;;;;;;-3.93;69.65;99671.75;4968291;28;20527;-62
2022/02/14 05:40:22;;;;;;;9.07;2.95;;;;;;;-3.93;69.41;99659.41;4968588;28;20109;-65
2022/02/14 05:42:48;;;;;;;9.35;2.50;;;;;;;-3.83;69.25;99667.84;4920350;29;20142;-62
2022/02/14 05:45:14;;;;;;;11.52;2.72;;;;;;;-3.73;68.67;99669.22;4920653;29;20192;-64
2022/02/14 05:47:40;;;;;;;9.20;2.75;;;;;;;-3.74;68.78;99672.75;4952321;29;20043;-63
2022/02/14 05:50:07;;;;;;;8.60;2.05;;;;;;;-3.54;68.74;99682.53;4920482;29;20427;-62
2022/02/14 05:52:34;;;;;;;7.95;2.40;;;;;;;-3.54;68.94;99674.59;4989630;28;20093;-66
2022/02/14 05:55:00;;;;;;;7.65;2.38;;;;;;;-3.46;68.60;99683.06;4931294;28;20062;-64
2022/02/14 05:57:26;;;;;;;10.13;3.30;;;;;;;-3.41;68.79;99667.03;4944208;28;20043;-63
2022/02/14 05:59:52;;;;;;;9.82;3.05;;;;;;;-3.47;68.20;99664.66;4936171;28;20055;-63
2022/02/14 06:02:18;;;;;;;10.57;2.22;;;;;;;-3.33;68.09;99672.00;4959635;28;20473;-64
2022/02/14 06:04:44;;;;;;;9.10;2.63;;;;;;;-3.35;68.42;99673.84;4936302;28;20043;-62
2022/02/14 06:07:09;;;;;;;13.13;2.92;;;;;;;-3.17;68.15;99673.94;4927202;28;20060;-63
2022/02/14 06:09:35;;;;;;;9.63;3.05;;;;;;;-3.13;67.86;99665.88;4996766;28;20451;-62
2022/02/14 06:12:02;;;;;;;13.18;4.10;;;;;;;-3.26;68.29;99669.03;4974333;28;20391;-63
2022/02/14 06:14:28;;;;;;;8.82;3.10;;;;;;;-3.23;68.42;99668.91;4986235;28;20082;-63
2022/02/14 06:16:54;;;;;;;15.70;3.70;;;;;;;-3.30;69.23;99661.28;4328191;28;20055;-64
2022/02/14 06:19:22;;;;;;;8.02;2.88;;;;;;;-3.43;68.65;99630.09;4248090;33;20070;-64
2022/02/14 06:21:48;;;;;;;11.05;3.00;;;;;;;-3.08;68.44;99655.97;4251692;33;20058;-65
2022/02/14 06:24:15;;;;;;;9.35;2.70;;;;;;;-3.06;68.09;99664.69;4253734;33;20507;-64
2022/02/14 06:26:41;;;;;;;9.25;2.45;;;;;;;-3.11;68.09;99661.38;4225380;33;20122;-64
2022/02/14 06:29:07;;;;;;;10.27;3.00;;;;;;;-3.09;67.88;99656.91;4245960;33;20053;-67
2022/02/14 06:31:33;;;;;;;8.52;2.22;;;;;;;-2.94;67.99;99677.38;4258122;33;20544;-63
2022/02/14 06:33:59;;;;;;;9.52;2.92;;;;;;;-2.96;68.24;99681.91;4241471;33;20055;-65
2022/02/14 06:36:28;;;;;;;8.93;2.53;;;;;;;-2.82;67.24;99684.78;4237890;33;20522;-65
2022/02/14 06:38:56;;;;;;;9.93;3.38;;;;;;;-2.90;68.32;99681.63;4243629;33;20107;-65
2022/02/14 06:41:23;;;;;;;11.95;3.88;;;;;;;-2.65;66.78;99681.41;4244377;33;20070;-65
2022/02/14 06:43:49;;;;;;;12.38;3.58;;;;;;;-2.79;66.37;99652.91;4239109;33;20065;-63
2022/02/14 06:46:15;;;;;;;11.23;3.58;;;;;;;-2.43;66.53;99681.31;4239413;33;20067;-64
2022/02/14 06:48:43;;;;;;;12.50;3.85;;;;;;;-2.16;66.01;99667.75;4236263;33;20130;-64
2022/02/14 06:51:11;;;;;;;9.82;3.17;;;;;;;-1.33;63.31;99670.81;4254476;33;20107;-66
2022/02/14 06:53:37;;;;;;;11.45;4.68;;;;;;;-1.50;62.62;99665.47;4244165;33;20062;-64
2022/02/14 06:56:05;;;;;;;10.75;4.25;;;;;;;-1.18;62.70;99663.88;4228743;33;20126;-65
2022/02/14 06:58:38;;;;;;;11.52;3.17;;;;;;;-1.19;61.98;99671.91;4246585;28;20479;-66
2022/02/14 07:01:05;;;;;;;11.25;3.50;;;;;;;-1.67;63.67;99639.81;4250900;28;20229;-64
2022/02/14 07:03:31;;;;;;;13.50;3.55;;;;;;;-1.61;64.16;99655.41;4257396;33;20061;-64
2022/02/14 07:05:57;;;;;;;8.90;3.33;;;;;;;-0.71;61.36;99638.50;4232319;33;20577;-65
2022/02/14 07:08:23;;;;;;;9.32;2.75;;;;;;;0.89;57.13;99660.59;4240025;33;20056;-65
2022/02/14 07:10:49;;;;;;;9.40;3.03;;;;;;;0.46;56.97;99644.44;4242589;33;20415;-64
2022/02/14 07:13:15;;;;;;;10.95;3.80;;;;;;;0.64;56.02;99650.53;4258686;28;20074;-63
2022/02/14 07:15:41;;;;;;;8.65;3.10;;;;;;;-0.01;58.25;99654.13;4244758;33;20074;-64
2022/02/14 07:18:12;;;;;;;10.15;4.22;;;;;;;1.12;55.58;99662.75;4256059;33;20054;-65
2022/02/14 07:20:38;;;;;;;11.25;3.92;;;;;;;1.07;55.27;99659.50;4259763;28;20495;-65
2022/02/14 07:23:04;;;;;;;13.98;3.80;;;;;;;2.69;51.80;99666.28;4242583;33;20526;-64
2022/02/14 07:25:29;;;;;;;16.15;4.85;;;;;;;2.10;51.16;99666.53;4240527;33;20066;-65
2022/02/14 07:27:55;;;;;;;13.38;3.95;;;;;;;2.68;51.81;99664.56;4257730;33;20050;-64
2022/02/14 07:30:21;;;;;;;13.77;4.18;;;;;;;2.47;51.02;99659.66;4269319;33;20054;-67
2022/02/14 07:32:48;;;;;;;14.23;4.93;;;;;;;1.74;53.57;99661.69;4238033;33;20132;-65
2022/02/14 07:35:14;;;;;;;9.35;3.45;;;;;;;1.34;54.62;99645.47;4236939;33;20383;-65
2022/02/14 07:37:42;;;;;;;13.35;3.83;;;;;;;1.08;55.42;99645.25;4252659;33;20042;-64
2022/02/14 07:40:09;;;;;;;9.30;3.80;;;;;;;0.84;56.82;99657.31;4262173;33;20089;-65
2022/02/14 07:42:35;;;;;;;9.18;3.58;;;;;;;1.44;55.70;99643.97;4236437;33;20117;-66
2022/02/14 07:45:04;;;;;;;11.10;3.05;;;;;;;1.62;54.38;99656.16;4239016;33;20063;-65
2022/02/14 07:47:30;;;;;;;9.63;3.80;;;;;;;1.87;53.75;99663.50;4233243;33;20066;-65
2022/02/14 07:49:56;;;;;;;9.95;3.45;;;;;;;2.13;54.61;99637.00;4938553;28;20062;-64
2022/02/14 07:52:22;;;;;;;12.15;4.47;;;;;;;2.51;50.96;99613.16;4957736;28;20516;-64
2022/02/14 07:54:49;;;;;;;11.80;5.05;;;;;;;1.14;55.65;99666.19;4955513;28;20145;-64
2022/02/14 07:57:15;;;;;;;12.32;4.43;;;;;;;2.41;53.39;99662.72;4976143;28;20140;-64
2022/02/14 07:59:40;;;;;;;10.20;4.00;;;;;;;1.75;54.09;99660.72;4973062;28;20491;-64
2022/02/14 08:02:07;;;;;;;11.25;4.35;;;;;;;1.78;54.55;99665.88;4978329;28;20097;-64
2022/02/14 08:04:33;;;;;;;14.20;3.92;;;;;;;3.12;51.58;99665.13;4991873;28;20046;-64
2022/02/14 08:07:02;;;;;;;9.63;3.38;;;;;;;4.53;47.74;99652.50;4974634;28;20467;-64
2022/02/14 08:09:28;;;;;;;10.63;5.30;;;;;;;3.30;49.69;99654.16;4990468;28;20050;-64
2022/02/14 08:11:53;;;;;;;12.18;4.13;;;;;;;4.25;48.23;99652.81;4992859;28;20044;-64
2022/02/14 08:14:21;;;;;;;10.73;4.05;;;;;;;5.41;44.63;99654.81;4993443;28;20104;-65
2022/02/14 08:16:47;;;;;;;10.68;4.20;;;;;;;4.01;48.29;99666.97;4962280;28;20529;-65
2022/02/14 08:19:13;;;;;;;10.15;3.50;;;;;;;3.90;48.47;99660.66;4934421;28;20047;-65
2022/02/14 08:21:39;;;;;;;12.20;3.80;;;;;;;5.30;46.58;99661.00;4968455;28;20052;-64
2022/02/14 08:24:05;;;;;;;9.82;3.78;;;;;;;5.73;44.15;99664.84;4962876;28;20077;-64
2022/02/14 08:26:32;;;;;;;11.80;4.78;;;;;;;4.99;44.74;99659.78;4960602;28;20034;-65
2022/02/14 08:28:58;;;;;;;10.00;3.55;;;;;;;5.29;45.90;99661.09;4973527;28;20062;-65
2022/02/14 08:31:24;;;;;;;11.60;3.60;;;;;;;4.79;46.80;99658.59;4970467;28;20438;-66
2022/02/14 08:33:49;;;;;;;13.38;4.35;;;;;;;5.36;45.35;99675.72;4956481;28;20042;-65
2022/02/14 08:36:15;;;;;;;12.52;4.63;;;;;;;5.61;44.63;99676.53;4947317;28;20050;-66
2022/02/14 08:38:41;;;;;;;9.70;4.05;;;;;;;3.94;48.36;99665.69;4949227;28;20105;-65
2022/02/14 08:41:07;;;;;;;11.10;4.30;;;;;;;3.42;49.58;99653.28;4985615;28;20538;-68
2022/02/14 08:43:33;;;;;;;13.60;4.78;;;;;;;3.92;49.11;99672.97;4966303;28;20562;-64
2022/02/14 08:45:59;;;;;;;10.20;4.03;;;;;;;2.77;50.94;99666.63;4968740;28;20058;-65
2022/02/14 08:48:27;;;;;;;13.02;4.75;;;;;;;2.61;52.21;99667.63;4990487;28;20135;-64
2022/02/14 08:50:53;;;;;;;10.43;4.05;;;;;;;2.59;52.83;99668.69;4961744;28;20035;-65
2022/02/14 08:53:23;;;;;;;11.07;5.43;;;;;;;2.97;51.64;99663.50;4956919;28;20142;-64
2022/02/14 08:55:49;;;;;;;13.07;4.70;;;;;;;2.39;53.21;99656.66;4988546;28;20049;-64
2022/02/14 08:58:15;;;;;;;10.68;4.50;;;;;;;2.91;51.86;99663.88;4972325;28;20423;-69
2022/02/14 09:00:41;;;;;;;11.27;4.10;;;;;;;3.82;50.80;99655.88;4956141;28;20145;-66
2022/02/14 09:03:07;;;;;;;11.15;5.10;;;;;;;3.90;49.27;99661.53;4953908;28;20054;-65
2022/02/14 09:05:33;;;;;;;13.05;6.28;;;;;;;3.26;50.62;99644.63;4955815;28;20038;-64
2022/02/14 09:07:59;;;;;;;11.43;4.70;;;;;;;3.45;51.59;99647.75;4988051;28;20053;-64
2022/02/14 09:10:25;;;;;;;15.77;5.82;;;;;;;3.03;51.53;99644.38;4940614;28;20113;-66
2022/02/14 09:12:51;;;;;;;11.88;4.90;;;;;;;4.33;48.64;99661.13;4979160;28;20053;-66
2022/02/14 09:15:17;;;;;;;11.52;4.45;;;;;;;5.28;47.00;99649.50;4952076;28;20042;-65
2022/02/14 09:17:44;;;;;;;12.00;5.50;;;;;;;6.46;45.55;99658.13;4985562;28;20471;-65
2022/02/14 09:20:10;;;;;;;11.57;5.43;;;;;;;6.17;43.75;99658.66;4974521;28;20057;-65
2022/02/14 09:22:37;;;;;;;13.07;5.55;;;;;;;7.46;41.17;99654.22;4957434;28;20050;-64
2022/02/14 09:25:04;;;;;;;13.90;5.25;;;;;;;5.13;46.09;99657.88;4947312;28;20141;-65
2022/02/14 09:27:30;;;;;;;11.52;4.78;;;;;;;6.85;43.72;99654.00;4972986;28;20064;-64
2022/02/14 09:29:57;;;;;;;10.90;4.75;;;;;;;6.49;43.06;99648.00;4977869;28;20543;-64
2022/02/14 09:32:23;;;;;;;12.40;5.05;;;;;;;7.79;40.24;99655.00;4989724;28;20054;-64
2022/02/14 09:34:49;;;;;;;11.70;5.28;;;;;;;5.29;45.16;99653.91;4959741;28;20473;-65
2022/02/14 09:37:15;;;;;;;13.80;6.07;;;;;;;5.78;44.46;99657.31;4962566;28;20097;-64
2022/02/14 09:39:42;;;;;;;13.80;5.90;;;;;;;6.77;42.56;99656.50;4973893;28;20042;-64
2022/02/14 09:42:08;;;;;;;10.63;4.97;;;;;;;6.12;43.55;99652.81;4980216;28;20104;-64
2022/02/14 09:44:35;;;;;;;14.55;5.20;;;;;;;7.60;40.76;99644.94;4972191;28;20054;-65
2022/02/14 09:47:03;;;;;;;12.88;5.90;;;;;;;6.92;42.52;99648.97;4970490;28;20085;-69
2022/02/14 09:49:32;;;;;;;13.20;6.32;;;;;;;4.52;47.03;99629.34;4995120;28;20442;-65
2022/02/14 09:51:58;;;;;;;13.85;6.10;;;;;;;5.36;45.67;99635.53;4984600;28;20490;-70
2022/02/14 09:54:25;;;;;;;13.02;6.45;;;;;;;4.76;46.43;99597.22;4963063;28;20046;-65
2022/02/14 09:56:51;;;;;;;17.75;6.57;;;;;;;5.42;45.71;99640.41;4987055;28;20057;-67
2022/02/14 09:59:18;;;;;;;14.25;6.60;;;;;;;5.74;44.72;99634.34;4965053;28;20330;-69
2022/02/14 10:01:45;;;;;;;12.65;6.50;;;;;;;5.41;46.06;99628.00;4956627;28;20081;-71
2022/02/14 10:04:11;;;;;;;13.60;5.97;;;;;;;5.71;44.98;99637.28;4994389;28;20522;-66
2022/02/14 10:06:39;;;;;;;13.23;6.32;;;;;;;4.92;47.14;99633.56;4956721;28;20061;-70
2022/02/14 10:09:15;;;;;;;10.93;4.97;;;;;;;7.35;42.91;99630.09;4981800;28;20078;-71
2022/02/14 10:12:03;;;;;;;12.45;4.80;;;;;;;7.23;41.37;99625.72;4967701;28;20454;-72
2022/02/14 10:14:29;;;;;;;12.95;7.10;;;;;;;5.45;44.89;99618.75;4950560;28;20042;-70
2022/02/14 10:17:00;;;;;;;14.15;6.05;;;;;;;5.35;45.84;99633.81;4946063;28;20126;-69
2022/02/14 10:19:27;;;;;;;13.35;6.10;;;;;;;6.32;44.35;99627.03;4951028;28;20038;-69
2022/02/14 10:21:54;;;;;;;13.95;5.80;;;;;;;7.61;41.17;99624.28;4944608;28;20057;-70
2022/02/14 10:24:20;;;;;;;12.65;5.22;;;;;;;9.35;38.30;99635.47;4935651;28;20057;-69
2022/02/14 10:26:52;;;;;;;13.27;5.88;;;;;;;8.96;37.85;99631.09;4950915;28;20034;-71
2022/02/14 10:29:30;;;;;;;13.93;7.53;;;;;;;5.96;43.46;99629.03;4958708;28;20069;-71
2022/02/14 10:31:56;;;;;;;11.82;5.80;;;;;;;7.96;41.15;99631.97;4940244;28;20046;-72
2022/02/14 10:34:38;;;;;;;12.30;5.88;;;;;;;8.88;38.61;99624.56;4982335;28;20042;-70
2022/02/14 10:37:05;;;;;;;13.93;5.78;;;;;;;7.97;39.61;99630.97;4959939;28;20047;-71
2022/02/14 10:39:32;;;;;;;12.75;6.35;;;;;;;7.72;41.11;99641.22;4968258;28;20205;-70
2022/02/14 10:42:03;;;;;;;11.50;5.78;;;;;;;7.79;41.79;99628.06;4954813;28;20556;-69
2022/02/14 10:47:32;;;;;;;13.77;6.70;;;;;;;6.53;43.45;99635.16;4986303;28;20185;-72
2022/02/14 10:50:19;;;;;;;12.60;5.20;;;;;;;5.82;45.01;99634.63;4974942;28;20502;-69
2022/02/14 10:52:52;;;;;;;13.07;6.30;;;;;;;5.89;44.81;99622.44;4991873;28;20058;-69
2022/02/14 10:55:27;;;;;;;13.23;7.75;;;;;;;5.01;46.49;99622.13;4959384;28;20054;-70
2022/02/14 10:57:58;;;;;;;16.02;7.25;;;;;;;6.17;44.29;99620.22;4947289;28;20043;-70
2022/02/14 11:00:28;;;;;;;13.63;7.45;;;;;;;5.66;45.04;99615.31;4983290;28;20665;-70
2022/02/14 11:02:58;;;;;;;13.68;7.35;;;;;;;5.60;46.39;99618.50;4979135;28;20047;-69
2022/02/14 11:05:26;;;;;;;14.27;6.57;;;;;;;8.00;41.30;99629.84;5000121;28;20501;-69
2022/02/14 11:07:53;;;;;;;11.55;5.70;;;;;;;7.48;41.38;99630.72;5010555;28;20058;-70
2022/02/14 11:10:20;;;;;;;14.20;6.95;;;;;;;7.88;41.17;99604.88;4947266;28;20046;-70
2022/02/14 11:12:54;;;;;;;12.90;6.47;;;;;;;7.52;42.37;99614.31;4983455;28;20044;-70
2022/02/14 11:15:31;;;;;;;16.05;7.53;;;;;;;6.41;43.82;99615.56;5003113;28;20046;-70
2022/02/14 11:18:17;;;;;;;13.90;7.20;;;;;;;7.00;43.36;99620.47;4972951;28;20137;-69
2022/02/14 11:20:46;;;;;;;14.15;6.22;;;;;;;7.17;42.42;99626.28;4982055;28;20092;-70
2022/02/14 11:23:15;;;;;;;17.63;6.68;;;;;;;6.73;43.43;99623.66;4952804;28;20050;-70
2022/02/14 11:26:03;;;;;;;18.73;7.32;;;;;;;7.83;41.28;99612.50;4980494;28;20035;-70
2022/02/14 11:28:39;;;;;;;14.50;7.35;;;;;;;6.86;42.89;99607.34;4974385;28;20520;-69
2022/02/14 11:31:14;;;;;;;13.40;6.50;;;;;;;7.44;42.25;99606.91;4957437;28;20049;-70
2022/02/14 11:33:50;;;;;;;15.52;8.57;;;;;;;5.17;46.05;99600.41;4987871;28;20130;-70